sensor_id;sensor_type;location;lat;lon;timestamp;P1;durP1;ratioP1;P2;durP2;ratioP2
68212;SDS011;55035;47.792;8.724;2022-09-04T00:01:48;7.60;;;3.30;;
68212;SDS011;55035;47.792;8.724;2022-09-04T00:04:21;6.97;;;3.03;;
68212;SDS011;55035;47.792;8.724;2022-09-04T00:06:51;8.00;;;3.50;;
68212;SDS011;55035;47.792;8.724;2022-09-04T00:09:21;8.25;;;3.63;;
68212;SDS011;55035;47.792;8.724;2022-09-04T00:11:55;7.43;;;3.53;;
68212;SDS011;55035;47.792;8.724;2022-09-04T00:14:26;7.82;;;3.00;;
68212;SDS011;55035;47.792;8.724;2022-09-04T00:16:57;7.90;;;3.83;;
68212;SDS011;55035;47.792;8.724;2022-09-04T00:19:29;8.93;;;3.83;;
68212;SDS011;55035;47.792;8.724;2022-09-04T00:21:58;8.52;;;3.45;;
68212;SDS011;55035;47.792;8.724;2022-09-04T00:24:27;7.68;;;3.35;;
68212;SDS011;55035;47.792;8.724;2022-09-04T00:26:56;8.77;;;3.38;;
68212;SDS011;55035;47.792;8.724;2022-09-04T00:29:28;7.35;;;3.40;;
68212;SDS011;55035;47.792;8.724;2022-09-04T00:32:00;8.67;;;3.90;;
68212;SDS011;55035;47.792;8.724;2022-09-04T00:34:36;8.43;;;3.85;;
68212;SDS011;55035;47.792;8.724;2022-09-04T00:37:08;11.43;;;3.72;;
68212;SDS011;55035;47.792;8.724;2022-09-04T00:39:38;7.95;;;2.97;;
68212;SDS011;55035;47.792;8.724;2022-09-04T00:42:08;7.97;;;3.95;;
68212;SDS011;55035;47.792;8.724;2022-09-04T00:44:46;8.40;;;3.83;;
68212;SDS011;55035;47.792;8.724;2022-09-04T00:47:21;8.85;;;3.85;;
68212;SDS011;55035;47.792;8.724;2022-09-04T00:52:44;7.35;;;3.38;;
68212;SDS011;55035;47.792;8.724;2022-09-04T00:55:22;9.93;;;3.72;;
68212;SDS011;55035;47.792;8.724;2022-09-04T00:58:06;7.17;;;3.10;;
68212;SDS011;55035;47.792;8.724;2022-09-04T01:00:34;8.20;;;2.90;;
68212;SDS011;55035;47.792;8.724;2022-09-04T01:03:14;8.32;;;3.30;;
68212;SDS011;55035;47.792;8.724;2022-09-04T01:05:47;7.50;;;3.55;;
68212;SDS011;55035;47.792;8.724;2022-09-04T01:08:20;7.03;;;3.50;;
68212;SDS011;55035;47.792;8.724;2022-09-04T01:10:56;7.93;;;4.03;;
68212;SDS011;55035;47.792;8.724;2022-09-04T01:13:27;7.70;;;3.60;;
68212;SDS011;55035;47.792;8.724;2022-09-04T01:16:00;7.85;;;3.20;;
68212;SDS011;55035;47.792;8.724;2022-09-04T01:18:31;7.90;;;3.90;;
68212;SDS011;55035;47.792;8.724;2022-09-04T01:23:50;9.07;;;4.10;;
68212;SDS011;55035;47.792;8.724;2022-09-04T01:26:24;9.43;;;4.28;;
68212;SDS011;55035;47.792;8.724;2022-09-04T01:28:57;8.30;;;3.72;;
68212;SDS011;55035;47.792;8.724;2022-09-04T01:31:31;9.32;;;3.97;;
68212;SDS011;55035;47.792;8.724;2022-09-04T01:34:04;8.15;;;3.70;;
68212;SDS011;55035;47.792;8.724;2022-09-04T01:36:37;9.93;;;3.97;;
68212;SDS011;55035;47.792;8.724;2022-09-04T01:39:06;9.65;;;3.50;;
68212;SDS011;55035;47.792;8.724;2022-09-04T01:41:36;8.45;;;3.65;;
68212;SDS011;55035;47.792;8.724;2022-09-04T01:44:06;7.88;;;3.90;;
68212;SDS011;55035;47.792;8.724;2022-09-04T01:46:38;8.70;;;4.00;;
68212;SDS011;55035;47.792;8.724;2022-09-04T01:49:09;9.43;;;4.00;;
68212;SDS011;55035;47.792;8.724;2022-09-04T01:51:40;8.48;;;4.00;;
68212;SDS011;55035;47.792;8.724;2022-09-04T01:54:18;7.57;;;3.67;;
68212;SDS011;55035;47.792;8.724;2022-09-04T01:56:53;7.90;;;4.07;;
68212;SDS011;55035;47.792;8.724;2022-09-04T01:59:24;7.88;;;4.00;;
68212;SDS011;55035;47.792;8.724;2022-09-04T02:01:52;8.07;;;4.20;;
68212;SDS011;55035;47.792;8.724;2022-09-04T02:04:21;7.60;;;3.78;;
68212;SDS011;55035;47.792;8.724;2022-09-04T02:07:06;8.10;;;3.80;;
68212;SDS011;55035;47.792;8.724;2022-09-04T02:09:36;8.00;;;3.60;;
68212;SDS011;55035;47.792;8.724;2022-09-04T02:12:10;8.63;;;3.65;;
68212;SDS011;55035;47.792;8.724;2022-09-04T02:14:40;7.67;;;3.33;;
68212;SDS011;55035;47.792;8.724;2022-09-04T02:17:09;8.05;;;4.00;;
68212;SDS011;55035;47.792;8.724;2022-09-04T02:19:40;8.40;;;4.20;;
68212;SDS011;55035;47.792;8.724;2022-09-04T02:22:14;8.35;;;3.97;;
68212;SDS011;55035;47.792;8.724;2022-09-04T02:24:46;9.10;;;3.70;;
68212;SDS011;55035;47.792;8.724;2022-09-04T02:27:17;7.53;;;3.10;;
68212;SDS011;55035;47.792;8.724;2022-09-04T02:29:50;8.75;;;3.13;;
68212;SDS011;55035;47.792;8.724;2022-09-04T02:32:18;9.63;;;3.20;;
68212;SDS011;55035;47.792;8.724;2022-09-04T02:34:48;8.35;;;3.10;;
68212;SDS011;55035;47.792;8.724;2022-09-04T02:37:19;10.23;;;3.75;;
68212;SDS011;55035;47.792;8.724;2022-09-04T02:39:50;8.80;;;4.03;;
68212;SDS011;55035;47.792;8.724;2022-09-04T02:42:22;11.25;;;3.83;;
68212;SDS011;55035;47.792;8.724;2022-09-04T02:44:56;8.57;;;3.78;;
68212;SDS011;55035;47.792;8.724;2022-09-04T02:47:26;8.15;;;3.92;;
68212;SDS011;55035;47.792;8.724;2022-09-04T02:49:58;7.70;;;3.75;;
68212;SDS011;55035;47.792;8.724;2022-09-04T02:52:37;9.30;;;3.87;;
68212;SDS011;55035;47.792;8.724;2022-09-04T02:55:17;8.15;;;3.75;;
68212;SDS011;55035;47.792;8.724;2022-09-04T02:57:51;8.23;;;3.65;;
68212;SDS011;55035;47.792;8.724;2022-09-04T03:00:22;9.48;;;3.70;;
68212;SDS011;55035;47.792;8.724;2022-09-04T03:02:50;8.52;;;4.03;;
68212;SDS011;55035;47.792;8.724;2022-09-04T03:05:18;7.80;;;3.77;;
68212;SDS011;55035;47.792;8.724;2022-09-04T03:07:48;8.18;;;3.67;;
68212;SDS011;55035;47.792;8.724;2022-09-04T03:10:18;7.60;;;3.45;;
68212;SDS011;55035;47.792;8.724;2022-09-04T03:12:46;8.80;;;3.58;;
68212;SDS011;55035;47.792;8.724;2022-09-04T03:15:19;8.32;;;3.70;;
68212;SDS011;55035;47.792;8.724;2022-09-04T03:17:52;11.37;;;5.80;;
68212;SDS011;55035;47.792;8.724;2022-09-04T03:20:20;8.75;;;4.38;;
68212;SDS011;55035;47.792;8.724;2022-09-04T03:22:49;9.63;;;4.13;;
68212;SDS011;55035;47.792;8.724;2022-09-04T03:25:27;7.75;;;3.53;;
68212;SDS011;55035;47.792;8.724;2022-09-04T03:27:59;8.30;;;3.60;;
68212;SDS011;55035;47.792;8.724;2022-09-04T03:30:28;7.80;;;3.40;;
68212;SDS011;55035;47.792;8.724;2022-09-04T03:32:58;8.00;;;3.33;;
68212;SDS011;55035;47.792;8.724;2022-09-04T03:35:29;10.95;;;3.88;;
68212;SDS011;55035;47.792;8.724;2022-09-04T03:38:03;7.78;;;3.60;;
68212;SDS011;55035;47.792;8.724;2022-09-04T03:40:34;8.13;;;3.55;;
68212;SDS011;55035;47.792;8.724;2022-09-04T03:45:50;8.27;;;3.75;;
68212;SDS011;55035;47.792;8.724;2022-09-04T03:48:24;10.30;;;4.00;;
68212;SDS011;55035;47.792;8.724;2022-09-04T03:50:54;7.45;;;3.40;;
68212;SDS011;55035;47.792;8.724;2022-09-04T03:53:29;7.28;;;3.50;;
68212;SDS011;55035;47.792;8.724;2022-09-04T03:58:44;8.13;;;3.83;;
68212;SDS011;55035;47.792;8.724;2022-09-04T04:01:16;8.32;;;3.65;;
68212;SDS011;55035;47.792;8.724;2022-09-04T04:04:04;7.57;;;3.47;;
68212;SDS011;55035;47.792;8.724;2022-09-04T04:06:36;7.75;;;3.85;;
68212;SDS011;55035;47.792;8.724;2022-09-04T04:09:10;7.47;;;3.77;;
68212;SDS011;55035;47.792;8.724;2022-09-04T04:11:45;7.07;;;3.20;;
68212;SDS011;55035;47.792;8.724;2022-09-04T04:14:27;8.90;;;3.38;;
68212;SDS011;55035;47.792;8.724;2022-09-04T04:17:02;7.20;;;3.35;;
68212;SDS011;55035;47.792;8.724;2022-09-04T04:19:35;7.43;;;3.58;;
68212;SDS011;55035;47.792;8.724;2022-09-04T04:22:10;9.17;;;3.50;;
68212;SDS011;55035;47.792;8.724;2022-09-04T04:24:43;7.20;;;3.38;;
68212;SDS011;55035;47.792;8.724;2022-09-04T04:27:17;7.35;;;3.70;;
68212;SDS011;55035;47.792;8.724;2022-09-04T04:29:54;6.72;;;3.05;;
68212;SDS011;55035;47.792;8.724;2022-09-04T04:35:28;7.10;;;3.27;;
68212;SDS011;55035;47.792;8.724;2022-09-04T04:38:01;8.32;;;3.47;;
68212;SDS011;55035;47.792;8.724;2022-09-04T04:40:33;9.10;;;3.40;;
68212;SDS011;55035;47.792;8.724;2022-09-04T04:43:04;7.90;;;3.42;;
68212;SDS011;55035;47.792;8.724;2022-09-04T04:45:35;14.02;;;5.70;;
68212;SDS011;55035;47.792;8.724;2022-09-04T04:48:29;9.87;;;3.93;;
68212;SDS011;55035;47.792;8.724;2022-09-04T04:51:05;9.23;;;4.00;;
68212;SDS011;55035;47.792;8.724;2022-09-04T04:53:35;7.90;;;3.65;;
68212;SDS011;55035;47.792;8.724;2022-09-04T04:56:05;7.40;;;3.47;;
68212;SDS011;55035;47.792;8.724;2022-09-04T04:58:42;9.80;;;3.97;;
68212;SDS011;55035;47.792;8.724;2022-09-04T05:01:13;7.63;;;3.67;;
68212;SDS011;55035;47.792;8.724;2022-09-04T05:03:48;8.38;;;3.35;;
68212;SDS011;55035;47.792;8.724;2022-09-04T05:06:21;6.95;;;3.25;;
68212;SDS011;55035;47.792;8.724;2022-09-04T05:08:53;10.68;;;3.60;;
68212;SDS011;55035;47.792;8.724;2022-09-04T05:11:22;7.28;;;3.60;;
68212;SDS011;55035;47.792;8.724;2022-09-04T05:13:56;8.07;;;3.07;;
68212;SDS011;55035;47.792;8.724;2022-09-04T05:16:29;6.90;;;3.00;;
68212;SDS011;55035;47.792;8.724;2022-09-04T05:18:59;7.20;;;3.40;;
68212;SDS011;55035;47.792;8.724;2022-09-04T05:21:31;8.02;;;3.13;;
68212;SDS011;55035;47.792;8.724;2022-09-04T05:24:03;6.85;;;3.05;;
68212;SDS011;55035;47.792;8.724;2022-09-04T05:26:32;6.63;;;3.27;;
68212;SDS011;55035;47.792;8.724;2022-09-04T05:29:03;7.45;;;3.15;;
68212;SDS011;55035;47.792;8.724;2022-09-04T05:31:35;8.13;;;3.35;;
68212;SDS011;55035;47.792;8.724;2022-09-04T05:34:07;6.70;;;2.90;;
68212;SDS011;55035;47.792;8.724;2022-09-04T05:36:41;8.10;;;3.38;;
68212;SDS011;55035;47.792;8.724;2022-09-04T05:39:14;8.17;;;3.50;;
68212;SDS011;55035;47.792;8.724;2022-09-04T05:41:48;7.32;;;3.13;;
68212;SDS011;55035;47.792;8.724;2022-09-04T05:44:24;6.78;;;2.92;;
68212;SDS011;55035;47.792;8.724;2022-09-04T05:46:59;9.05;;;2.55;;
68212;SDS011;55035;47.792;8.724;2022-09-04T05:49:35;7.90;;;2.90;;
68212;SDS011;55035;47.792;8.724;2022-09-04T05:52:13;7.07;;;3.07;;
68212;SDS011;55035;47.792;8.724;2022-09-04T05:54:48;8.00;;;2.60;;
68212;SDS011;55035;47.792;8.724;2022-09-04T05:57:24;7.38;;;2.97;;
68212;SDS011;55035;47.792;8.724;2022-09-04T06:00:01;6.82;;;3.10;;
68212;SDS011;55035;47.792;8.724;2022-09-04T06:05:25;6.60;;;2.83;;
68212;SDS011;55035;47.792;8.724;2022-09-04T06:07:59;7.22;;;3.38;;
68212;SDS011;55035;47.792;8.724;2022-09-04T06:10:29;7.57;;;3.08;;
68212;SDS011;55035;47.792;8.724;2022-09-04T06:13:17;8.25;;;2.92;;
68212;SDS011;55035;47.792;8.724;2022-09-04T06:15:50;7.63;;;3.35;;
68212;SDS011;55035;47.792;8.724;2022-09-04T06:18:26;6.87;;;3.00;;
68212;SDS011;55035;47.792;8.724;2022-09-04T06:21:05;7.13;;;3.10;;
68212;SDS011;55035;47.792;8.724;2022-09-04T06:26:22;8.23;;;3.55;;
68212;SDS011;55035;47.792;8.724;2022-09-04T06:29:14;8.10;;;4.10;;
68212;SDS011;55035;47.792;8.724;2022-09-04T06:32:03;8.47;;;3.93;;
68212;SDS011;55035;47.792;8.724;2022-09-04T06:34:38;8.88;;;4.03;;
68212;SDS011;55035;47.792;8.724;2022-09-04T06:37:11;8.82;;;3.20;;
68212;SDS011;55035;47.792;8.724;2022-09-04T06:39:44;7.00;;;3.17;;
68212;SDS011;55035;47.792;8.724;2022-09-04T06:42:17;6.95;;;2.90;;
68212;SDS011;55035;47.792;8.724;2022-09-04T06:44:52;7.13;;;3.53;;
68212;SDS011;55035;47.792;8.724;2022-09-04T06:47:24;8.13;;;3.47;;
68212;SDS011;55035;47.792;8.724;2022-09-04T06:49:57;8.52;;;4.00;;
68212;SDS011;55035;47.792;8.724;2022-09-04T06:52:27;7.20;;;4.07;;
68212;SDS011;55035;47.792;8.724;2022-09-04T06:54:58;8.32;;;4.15;;
68212;SDS011;55035;47.792;8.724;2022-09-04T06:57:34;6.70;;;3.77;;
68212;SDS011;55035;47.792;8.724;2022-09-04T07:00:05;7.40;;;3.50;;
68212;SDS011;55035;47.792;8.724;2022-09-04T07:02:39;8.43;;;4.07;;
68212;SDS011;55035;47.792;8.724;2022-09-04T07:05:10;8.52;;;4.10;;
68212;SDS011;55035;47.792;8.724;2022-09-04T07:07:43;7.45;;;4.00;;
68212;SDS011;55035;47.792;8.724;2022-09-04T07:10:14;7.70;;;4.00;;
68212;SDS011;55035;47.792;8.724;2022-09-04T07:12:48;8.43;;;3.80;;
68212;SDS011;55035;47.792;8.724;2022-09-04T07:15:41;7.18;;;3.80;;
68212;SDS011;55035;47.792;8.724;2022-09-04T07:18:11;9.00;;;4.53;;
68212;SDS011;55035;47.792;8.724;2022-09-04T07:20:44;8.45;;;4.10;;
68212;SDS011;55035;47.792;8.724;2022-09-04T07:23:21;7.77;;;4.17;;
68212;SDS011;55035;47.792;8.724;2022-09-04T07:25:54;9.55;;;3.70;;
68212;SDS011;55035;47.792;8.724;2022-09-04T07:28:31;9.02;;;4.05;;
68212;SDS011;55035;47.792;8.724;2022-09-04T07:31:01;9.07;;;3.78;;
68212;SDS011;55035;47.792;8.724;2022-09-04T07:33:31;8.65;;;4.20;;
68212;SDS011;55035;47.792;8.724;2022-09-04T07:36:02;7.90;;;4.47;;
68212;SDS011;55035;47.792;8.724;2022-09-04T07:38:33;7.47;;;4.10;;
68212;SDS011;55035;47.792;8.724;2022-09-04T07:41:03;7.22;;;3.47;;
68212;SDS011;55035;47.792;8.724;2022-09-04T07:43:36;8.70;;;4.32;;
68212;SDS011;55035;47.792;8.724;2022-09-04T07:46:08;8.68;;;4.65;;
68212;SDS011;55035;47.792;8.724;2022-09-04T07:48:39;9.90;;;4.57;;
68212;SDS011;55035;47.792;8.724;2022-09-04T07:51:09;7.03;;;4.18;;
68212;SDS011;55035;47.792;8.724;2022-09-04T07:56:22;7.18;;;3.75;;
68212;SDS011;55035;47.792;8.724;2022-09-04T08:01:40;7.90;;;3.63;;
68212;SDS011;55035;47.792;8.724;2022-09-04T08:04:19;8.13;;;3.72;;
68212;SDS011;55035;47.792;8.724;2022-09-04T08:06:49;6.95;;;3.80;;
68212;SDS011;55035;47.792;8.724;2022-09-04T08:09:34;7.15;;;3.58;;
68212;SDS011;55035;47.792;8.724;2022-09-04T08:14:51;7.77;;;4.23;;
68212;SDS011;55035;47.792;8.724;2022-09-04T08:20:18;7.38;;;4.30;;
68212;SDS011;55035;47.792;8.724;2022-09-04T08:22:46;7.53;;;3.92;;
68212;SDS011;55035;47.792;8.724;2022-09-04T08:25:24;7.90;;;3.47;;
68212;SDS011;55035;47.792;8.724;2022-09-04T08:27:59;8.43;;;4.40;;
68212;SDS011;55035;47.792;8.724;2022-09-04T08:30:33;7.20;;;3.95;;
68212;SDS011;55035;47.792;8.724;2022-09-04T08:33:12;7.20;;;3.67;;
68212;SDS011;55035;47.792;8.724;2022-09-04T08:35:49;7.03;;;4.07;;
68212;SDS011;55035;47.792;8.724;2022-09-04T08:38:31;6.60;;;3.70;;
68212;SDS011;55035;47.792;8.724;2022-09-04T08:43:51;7.55;;;4.30;;
68212;SDS011;55035;47.792;8.724;2022-09-04T08:55:00;8.10;;;3.73;;
68212;SDS011;55035;47.792;8.724;2022-09-04T09:00:17;8.63;;;3.70;;
68212;SDS011;55035;47.792;8.724;2022-09-04T09:02:53;7.45;;;4.15;;
68212;SDS011;55035;47.792;8.724;2022-09-04T09:11:30;7.00;;;3.83;;
68212;SDS011;55035;47.792;8.724;2022-09-04T09:14:18;6.90;;;4.10;;
68212;SDS011;55035;47.792;8.724;2022-09-04T09:16:47;6.80;;;3.97;;
68212;SDS011;55035;47.792;8.724;2022-09-04T09:19:22;7.25;;;3.80;;
68212;SDS011;55035;47.792;8.724;2022-09-04T09:22:05;7.37;;;3.77;;
68212;SDS011;55035;47.792;8.724;2022-09-04T09:24:39;7.72;;;3.97;;
68212;SDS011;55035;47.792;8.724;2022-09-04T09:27:15;6.50;;;3.75;;
68212;SDS011;55035;47.792;8.724;2022-09-04T09:29:53;7.32;;;4.28;;
68212;SDS011;55035;47.792;8.724;2022-09-04T09:35:22;7.10;;;3.80;;
68212;SDS011;55035;47.792;8.724;2022-09-04T09:41:07;6.68;;;3.67;;
68212;SDS011;55035;47.792;8.724;2022-09-04T09:43:43;6.68;;;3.45;;
68212;SDS011;55035;47.792;8.724;2022-09-04T09:46:31;7.60;;;4.10;;
68212;SDS011;55035;47.792;8.724;2022-09-04T09:51:53;6.80;;;3.88;;
68212;SDS011;55035;47.792;8.724;2022-09-04T10:00:05;6.20;;;3.47;;
68212;SDS011;55035;47.792;8.724;2022-09-04T10:05:26;7.53;;;3.42;;
68212;SDS011;55035;47.792;8.724;2022-09-04T10:11:14;6.18;;;2.97;;
68212;SDS011;55035;47.792;8.724;2022-09-04T10:13:51;6.82;;;3.15;;
68212;SDS011;55035;47.792;8.724;2022-09-04T10:16:36;7.20;;;3.17;;
68212;SDS011;55035;47.792;8.724;2022-09-04T10:19:12;5.90;;;3.10;;
68212;SDS011;55035;47.792;8.724;2022-09-04T10:21:55;5.55;;;2.70;;
68212;SDS011;55035;47.792;8.724;2022-09-04T10:24:32;7.32;;;2.72;;
68212;SDS011;55035;47.792;8.724;2022-09-04T10:27:10;7.95;;;3.13;;
68212;SDS011;55035;47.792;8.724;2022-09-04T10:32:42;5.60;;;2.85;;
68212;SDS011;55035;47.792;8.724;2022-09-04T10:35:22;5.95;;;2.80;;
68212;SDS011;55035;47.792;8.724;2022-09-04T10:38:07;5.68;;;2.78;;
68212;SDS011;55035;47.792;8.724;2022-09-04T10:40:42;5.38;;;2.50;;
68212;SDS011;55035;47.792;8.724;2022-09-04T10:43:14;7.03;;;2.83;;
68212;SDS011;55035;47.792;8.724;2022-09-04T10:45:51;6.00;;;2.85;;
68212;SDS011;55035;47.792;8.724;2022-09-04T10:48:26;5.60;;;2.90;;
68212;SDS011;55035;47.792;8.724;2022-09-04T10:53:56;6.30;;;2.72;;
68212;SDS011;55035;47.792;8.724;2022-09-04T10:56:31;6.50;;;2.73;;
68212;SDS011;55035;47.792;8.724;2022-09-04T10:59:07;5.50;;;2.70;;
68212;SDS011;55035;47.792;8.724;2022-09-04T11:01:45;5.10;;;2.53;;
68212;SDS011;55035;47.792;8.724;2022-09-04T11:04:27;6.05;;;2.80;;
68212;SDS011;55035;47.792;8.724;2022-09-04T11:07:04;6.85;;;2.70;;
68212;SDS011;55035;47.792;8.724;2022-09-04T11:09:40;6.73;;;2.70;;
68212;SDS011;55035;47.792;8.724;2022-09-04T11:12:16;5.10;;;2.40;;
68212;SDS011;55035;47.792;8.724;2022-09-04T11:14:53;5.93;;;3.00;;
68212;SDS011;55035;47.792;8.724;2022-09-04T11:17:46;6.97;;;2.95;;
68212;SDS011;55035;47.792;8.724;2022-09-04T11:20:34;5.70;;;2.80;;
68212;SDS011;55035;47.792;8.724;2022-09-04T11:23:17;5.73;;;2.97;;
68212;SDS011;55035;47.792;8.724;2022-09-04T11:28:40;5.70;;;3.15;;
68212;SDS011;55035;47.792;8.724;2022-09-04T11:31:28;5.20;;;2.53;;
68212;SDS011;55035;47.792;8.724;2022-09-04T11:36:56;6.07;;;2.90;;
68212;SDS011;55035;47.792;8.724;2022-09-04T11:42:28;5.63;;;3.10;;
68212;SDS011;55035;47.792;8.724;2022-09-04T11:45:04;5.18;;;2.70;;
68212;SDS011;55035;47.792;8.724;2022-09-04T11:47:44;6.15;;;2.65;;
68212;SDS011;55035;47.792;8.724;2022-09-04T11:58:40;5.75;;;3.10;;
68212;SDS011;55035;47.792;8.724;2022-09-04T12:01:16;4.97;;;2.50;;
68212;SDS011;55035;47.792;8.724;2022-09-04T12:03:49;5.70;;;2.67;;
68212;SDS011;55035;47.792;8.724;2022-09-04T12:06:21;6.05;;;3.05;;
68212;SDS011;55035;47.792;8.724;2022-09-04T12:11:51;6.03;;;2.67;;
68212;SDS011;55035;47.792;8.724;2022-09-04T12:14:31;5.95;;;2.88;;
68212;SDS011;55035;47.792;8.724;2022-09-04T12:17:11;5.77;;;3.10;;
68212;SDS011;55035;47.792;8.724;2022-09-04T12:19:59;6.25;;;3.13;;
68212;SDS011;55035;47.792;8.724;2022-09-04T12:31:03;6.00;;;2.90;;
68212;SDS011;55035;47.792;8.724;2022-09-04T12:33:39;5.63;;;3.20;;
68212;SDS011;55035;47.792;8.724;2022-09-04T12:36:14;5.68;;;2.72;;
68212;SDS011;55035;47.792;8.724;2022-09-04T12:41:32;5.32;;;2.60;;
68212;SDS011;55035;47.792;8.724;2022-09-04T12:44:04;5.77;;;2.60;;
68212;SDS011;55035;47.792;8.724;2022-09-04T12:46:42;5.88;;;2.75;;
68212;SDS011;55035;47.792;8.724;2022-09-04T12:52:00;5.40;;;2.65;;
68212;SDS011;55035;47.792;8.724;2022-09-04T12:54:34;5.60;;;2.40;;
68212;SDS011;55035;47.792;8.724;2022-09-04T12:57:09;5.53;;;2.90;;
68212;SDS011;55035;47.792;8.724;2022-09-04T12:59:44;5.28;;;2.83;;
68212;SDS011;55035;47.792;8.724;2022-09-04T13:02:16;5.55;;;2.90;;
68212;SDS011;55035;47.792;8.724;2022-09-04T13:04:51;5.22;;;2.72;;
68212;SDS011;55035;47.792;8.724;2022-09-04T13:07:25;5.53;;;2.60;;
68212;SDS011;55035;47.792;8.724;2022-09-04T13:09:58;5.97;;;2.90;;
68212;SDS011;55035;47.792;8.724;2022-09-04T13:12:29;5.38;;;3.03;;
68212;SDS011;55035;47.792;8.724;2022-09-04T13:15:04;6.68;;;2.58;;
68212;SDS011;55035;47.792;8.724;2022-09-04T13:17:40;6.00;;;3.20;;
68212;SDS011;55035;47.792;8.724;2022-09-04T13:20:11;6.35;;;3.00;;
68212;SDS011;55035;47.792;8.724;2022-09-04T13:22:45;6.07;;;2.73;;
68212;SDS011;55035;47.792;8.724;2022-09-04T13:25:13;5.57;;;2.63;;
68212;SDS011;55035;47.792;8.724;2022-09-04T13:27:48;5.30;;;2.53;;
68212;SDS011;55035;47.792;8.724;2022-09-04T13:30:17;5.25;;;2.40;;
68212;SDS011;55035;47.792;8.724;2022-09-04T13:32:57;7.50;;;3.20;;
68212;SDS011;55035;47.792;8.724;2022-09-04T13:35:37;5.57;;;2.40;;
68212;SDS011;55035;47.792;8.724;2022-09-04T13:38:11;5.20;;;2.60;;
68212;SDS011;55035;47.792;8.724;2022-09-04T13:40:57;6.10;;;2.40;;
68212;SDS011;55035;47.792;8.724;2022-09-04T13:43:33;6.70;;;2.78;;
68212;SDS011;55035;47.792;8.724;2022-09-04T13:46:06;5.60;;;2.58;;
68212;SDS011;55035;47.792;8.724;2022-09-04T13:48:38;5.87;;;2.77;;
68212;SDS011;55035;47.792;8.724;2022-09-04T13:51:07;5.38;;;2.60;;
68212;SDS011;55035;47.792;8.724;2022-09-04T13:53:36;6.40;;;2.80;;
68212;SDS011;55035;47.792;8.724;2022-09-04T13:56:07;5.35;;;2.67;;
68212;SDS011;55035;47.792;8.724;2022-09-04T13:58:36;5.50;;;2.88;;
68212;SDS011;55035;47.792;8.724;2022-09-04T14:01:05;6.50;;;2.77;;
68212;SDS011;55035;47.792;8.724;2022-09-04T14:03:35;6.25;;;2.70;;
68212;SDS011;55035;47.792;8.724;2022-09-04T14:06:07;5.35;;;2.50;;
68212;SDS011;55035;47.792;8.724;2022-09-04T14:08:35;6.00;;;2.60;;
68212;SDS011;55035;47.792;8.724;2022-09-04T14:11:11;5.10;;;2.05;;
68212;SDS011;55035;47.792;8.724;2022-09-04T14:13:49;5.40;;;2.57;;
68212;SDS011;55035;47.792;8.724;2022-09-04T14:16:16;5.00;;;2.08;;
68212;SDS011;55035;47.792;8.724;2022-09-04T14:21:34;5.22;;;2.33;;
68212;SDS011;55035;47.792;8.724;2022-09-04T14:24:06;5.13;;;2.50;;
68212;SDS011;55035;47.792;8.724;2022-09-04T14:26:38;5.27;;;2.10;;
68212;SDS011;55035;47.792;8.724;2022-09-04T14:29:11;6.13;;;2.40;;
68212;SDS011;55035;47.792;8.724;2022-09-04T14:31:42;6.35;;;2.70;;
68212;SDS011;55035;47.792;8.724;2022-09-04T14:34:12;5.15;;;2.33;;
68212;SDS011;55035;47.792;8.724;2022-09-04T14:36:44;8.55;;;2.70;;
68212;SDS011;55035;47.792;8.724;2022-09-04T14:39:15;6.10;;;3.00;;
68212;SDS011;55035;47.792;8.724;2022-09-04T14:41:45;5.28;;;2.38;;
68212;SDS011;55035;47.792;8.724;2022-09-04T14:44:20;5.47;;;2.40;;
68212;SDS011;55035;47.792;8.724;2022-09-04T14:46:51;5.95;;;2.17;;
68212;SDS011;55035;47.792;8.724;2022-09-04T14:49:22;5.90;;;2.80;;
68212;SDS011;55035;47.792;8.724;2022-09-04T14:51:51;5.40;;;2.43;;
68212;SDS011;55035;47.792;8.724;2022-09-04T14:54:23;5.95;;;2.28;;
68212;SDS011;55035;47.792;8.724;2022-09-04T14:56:51;6.07;;;2.30;;
68212;SDS011;55035;47.792;8.724;2022-09-04T14:59:21;5.20;;;2.50;;
68212;SDS011;55035;47.792;8.724;2022-09-04T15:04:39;5.77;;;2.47;;
68212;SDS011;55035;47.792;8.724;2022-09-04T15:07:18;5.32;;;2.28;;
68212;SDS011;55035;47.792;8.724;2022-09-04T15:09:49;5.47;;;2.22;;
68212;SDS011;55035;47.792;8.724;2022-09-04T15:12:17;7.00;;;2.70;;
68212;SDS011;55035;47.792;8.724;2022-09-04T15:14:45;5.07;;;2.03;;
68212;SDS011;55035;47.792;8.724;2022-09-04T15:17:19;7.43;;;3.00;;
68212;SDS011;55035;47.792;8.724;2022-09-04T15:19:51;6.22;;;2.28;;
68212;SDS011;55035;47.792;8.724;2022-09-04T15:22:22;7.00;;;2.42;;
68212;SDS011;55035;47.792;8.724;2022-09-04T15:24:53;6.15;;;2.20;;
68212;SDS011;55035;47.792;8.724;2022-09-04T15:27:25;5.78;;;2.33;;
68212;SDS011;55035;47.792;8.724;2022-09-04T15:29:55;5.63;;;2.60;;
68212;SDS011;55035;47.792;8.724;2022-09-04T15:32:24;5.32;;;2.45;;
68212;SDS011;55035;47.792;8.724;2022-09-04T15:35:04;5.63;;;2.55;;
68212;SDS011;55035;47.792;8.724;2022-09-04T15:37:33;5.95;;;2.90;;
68212;SDS011;55035;47.792;8.724;2022-09-04T15:40:01;6.50;;;2.75;;
68212;SDS011;55035;47.792;8.724;2022-09-04T15:42:32;5.83;;;2.53;;
68212;SDS011;55035;47.792;8.724;2022-09-04T15:45:00;5.80;;;2.67;;
68212;SDS011;55035;47.792;8.724;2022-09-04T15:47:45;6.03;;;2.45;;
68212;SDS011;55035;47.792;8.724;2022-09-04T15:50:20;6.38;;;2.78;;
68212;SDS011;55035;47.792;8.724;2022-09-04T15:52:51;6.45;;;2.72;;
68212;SDS011;55035;47.792;8.724;2022-09-04T15:55:20;5.40;;;2.70;;
68212;SDS011;55035;47.792;8.724;2022-09-04T15:57:52;5.72;;;2.83;;
68212;SDS011;55035;47.792;8.724;2022-09-04T16:00:24;5.80;;;2.65;;
68212;SDS011;55035;47.792;8.724;2022-09-04T16:02:58;6.40;;;2.50;;
68212;SDS011;55035;47.792;8.724;2022-09-04T16:05:28;5.55;;;2.58;;
68212;SDS011;55035;47.792;8.724;2022-09-04T16:08:05;7.03;;;3.10;;
68212;SDS011;55035;47.792;8.724;2022-09-04T16:10:48;5.90;;;2.08;;
68212;SDS011;55035;47.792;8.724;2022-09-04T16:16:06;5.28;;;2.47;;
68212;SDS011;55035;47.792;8.724;2022-09-04T16:18:38;6.57;;;2.67;;
68212;SDS011;55035;47.792;8.724;2022-09-04T16:21:11;5.80;;;3.00;;
68212;SDS011;55035;47.792;8.724;2022-09-04T16:23:45;7.30;;;2.92;;
68212;SDS011;55035;47.792;8.724;2022-09-04T16:26:13;7.72;;;2.92;;
68212;SDS011;55035;47.792;8.724;2022-09-04T16:28:41;5.97;;;2.45;;
68212;SDS011;55035;47.792;8.724;2022-09-04T16:31:10;7.57;;;2.53;;
68212;SDS011;55035;47.792;8.724;2022-09-04T16:33:39;5.47;;;2.50;;
68212;SDS011;55035;47.792;8.724;2022-09-04T16:36:14;5.50;;;2.60;;
68212;SDS011;55035;47.792;8.724;2022-09-04T16:38:43;6.03;;;2.70;;
68212;SDS011;55035;47.792;8.724;2022-09-04T16:41:16;5.80;;;2.33;;
68212;SDS011;55035;47.792;8.724;2022-09-04T16:46:26;6.13;;;2.73;;
68212;SDS011;55035;47.792;8.724;2022-09-04T16:48:56;6.22;;;2.83;;
68212;SDS011;55035;47.792;8.724;2022-09-04T16:51:25;5.85;;;2.50;;
68212;SDS011;55035;47.792;8.724;2022-09-04T16:53:54;7.57;;;2.80;;
68212;SDS011;55035;47.792;8.724;2022-09-04T16:56:27;6.20;;;2.67;;
68212;SDS011;55035;47.792;8.724;2022-09-04T16:58:59;6.37;;;2.30;;
68212;SDS011;55035;47.792;8.724;2022-09-04T17:01:37;5.60;;;2.40;;
68212;SDS011;55035;47.792;8.724;2022-09-04T17:04:12;6.20;;;2.80;;
68212;SDS011;55035;47.792;8.724;2022-09-04T17:06:47;7.35;;;3.13;;
68212;SDS011;55035;47.792;8.724;2022-09-04T17:09:25;6.00;;;3.00;;
68212;SDS011;55035;47.792;8.724;2022-09-04T17:11:56;5.60;;;2.30;;
68212;SDS011;55035;47.792;8.724;2022-09-04T17:14:24;6.38;;;2.70;;
68212;SDS011;55035;47.792;8.724;2022-09-04T17:16:53;6.47;;;2.78;;
68212;SDS011;55035;47.792;8.724;2022-09-04T17:19:21;6.25;;;2.85;;
68212;SDS011;55035;47.792;8.724;2022-09-04T17:21:56;5.70;;;2.55;;
68212;SDS011;55035;47.792;8.724;2022-09-04T17:24:47;6.13;;;2.60;;
68212;SDS011;55035;47.792;8.724;2022-09-04T17:27:17;5.65;;;2.78;;
68212;SDS011;55035;47.792;8.724;2022-09-04T17:29:47;6.53;;;2.65;;